St. JULIÀ DE VILATORTA (Osona)





Hora UTC 22:15
Temperatura 21.9 ºC
Humedad 71.3 %
Presión 1016.1 hPa
Pluja 0.0 mm
Velocidad viento 3.1 km/h
Dirección viento ENE
Radiación solar 1.0 W/m²

Datos diarios 2024-07-24



Hora UTC (invierno +1h; verano +2h)
Temperatura (ºC) Humedad (%) Presión (hPa) Velocidad viento (km/h) Precipitación (mm) Radiación solar (W/m²)
Hora UTC Aire Humedad Presión Vel. Dir. Vel. Max Dir. Intent. máx 5 min. Rad. Sol.
00:05 21.0 73.9 1019.8 2.1 ESE 2.1 E 0.0 0.7
00:10 21.0 73.9 1019.8 3.2 ESE 5.2 ESE 0.0 0.5
00:15 20.8 74.5 1019.8 3.3 ESE 5.7 ESE 0.0 0.7
00:20 20.8 74.2 1019.8 3.0 ESE 5.4 E 0.0 0.4
00:25 20.5 74.9 1019.7 2.2 SE 5.0 ESE 0.0 0.3
00:30 20.4 76.0 1019.7 2.7 ESE 5.0 ESE 0.0 0.2
00:35 20.3 76.5 1019.7 1.9 SE 3.1 SE 0.0 0.5
00:40 20.3 76.8 1019.6 2.2 ESE 3.7 ESE 0.0 0.2
00:45 20.4 76.8 1019.6 3.2 ESE 5.9 E 0.0 0.5
00:50 20.4 76.8 1019.6 4.0 E 5.7 E 0.0 0.5
00:55 20.3 77.7 1019.6 3.0 SE 4.7 SE 0.0 0.2
01:00 20.1 78.5 1019.5 1.4 SE 3.1 SE 0.0 0.0
01:05 19.9 79.1 1019.5 0.6 SE 1.5 E 0.0 0.0
01:10 19.8 80.1 1019.5 1.4 ESE 2.5 ESE 0.0 0.2
01:15 19.7 81.1 1019.5 2.4 E 4.8 E 0.0 0.4
01:20 19.6 81.5 1019.5 4.5 E 6.7 E 0.0 0.7
01:25 19.7 81.8 1019.6 3.7 ESE 7.3 ESE 0.0 0.5
01:30 19.7 81.6 1019.6 3.6 ESE 6.0 ESE 0.0 0.5
01:35 19.7 81.7 1019.6 2.7 E 5.4 E 0.0 0.4
01:40 19.7 81.8 1019.5 2.3 ESE 3.6 E 0.0 0.3
01:45 19.6 81.6 1019.5 1.1 SSE 2.6 SSE 0.0 0.1
01:50 19.5 82.3 1019.5 1.9 SE 2.8 SE 0.0 0.2
01:55 19.4 83.1 1019.4 2.0 SE 2.9 SE 0.0 0.3
02:00 19.4 83.1 1019.4 2.4 ESE 4.9 ESE 0.0 0.5
02:05 19.4 83.2 1019.3 2.4 SE 3.9 ESE 0.0 0.6
02:10 19.5 82.7 1019.3 2.5 ESE 4.6 ESE 0.0 0.3
02:15 19.4 82.8 1019.3 2.1 ESE 4.8 ESE 0.0 0.3
02:20 19.2 83.5 1019.2 2.3 ESE 4.9 E 0.0 0.6
02:25 19.1 83.8 1019.2 3.1 E 5.3 E 0.0 0.3
02:30 19.0 84.8 1019.1 2.0 ESE 3.9 ESE 0.0 0.6
02:35 19.0 84.8 1019.1 2.2 ESE 3.7 E 0.0 0.7
02:40 18.9 84.9 1019.1 3.2 ESE 6.6 ESE 0.0 0.4
02:45 18.9 85.0 1019.1 3.2 ESE 5.4 E 0.0 0.4
02:50 18.9 84.7 1019.1 3.9 ESE 6.5 E 0.0 0.5
02:55 18.9 84.2 1019.0 4.0 E 6.8 ESE 0.0 0.3
03:00 18.8 84.1 1019.0 3.8 E 6.0 E 0.0 0.4
03:05 18.7 84.0 1018.9 4.0 E 6.9 E 0.0 0.3
03:10 18.6 84.5 1018.9 3.4 E 5.8 E 0.0 0.4
03:15 18.5 84.5 1018.9 2.7 ESE 4.8 E 0.0 0.4
03:20 18.5 84.6 1018.9 2.6 E 4.4 ENE 0.0 0.3
03:25 18.4 84.4 1018.9 3.3 E 5.7 E 0.0 0.5
03:30 18.3 84.4 1018.9 1.4 SE 3.0 SE 0.0 0.2
03:35 18.2 84.9 1018.9 1.8 NE 3.8 NNE 0.0 0.4
03:40 18.1 85.5 1019.0 2.2 ESE 3.5 ENE 0.0 0.6
03:45 18.0 86.0 1019.0 1.6 E 2.9 ESE 0.0 0.6
03:50 18.1 85.6 1018.9 2.1 ESE 3.8 E 0.0 0.5
03:55 18.1 85.2 1019.0 2.6 ESE 5.0 NE 0.0 0.0
04:00 17.9 86.0 1019.0 3.8 ENE 6.4 NE 0.0 0.3
04:05 17.9 86.5 1019.0 3.6 E 6.6 SSE 0.0 0.3
04:10 18.1 86.0 1019.1 3.7 SE 8.3 SE 0.0 0.3
04:15 18.1 85.0 1019.0 2.3 SSE 4.6 SSE 0.0 0.1
04:20 18.1 85.2 1019.1 2.5 SE 5.3 SSE 0.0 0.1
04:25 18.0 85.6 1019.0 2.7 ESE 5.6 SE 0.0 0.9
04:30 18.0 85.7 1019.0 2.9 ESE 5.3 SE 0.0 1.1
04:35 17.9 86.1 1019.0 3.1 SE 4.9 SSE 0.0 2.0
04:40 18.0 86.1 1019.0 2.8 ESE 6.8 SSE 0.0 4.0
04:45 18.1 85.8 1019.0 2.6 E 6.4 SSE 0.0 5.7
04:50 18.1 85.3 1019.0 3.4 ESE 6.5 SSW 0.0 8.0
04:55 18.0 85.7 1019.0 3.8 SE 6.4 SSE 0.0 10.8
05:00 17.9 86.0 1019.0 1.9 SSE 4.1 S 0.0 13.3
05:05 17.9 86.1 1018.9 1.0 NE 2.3 SSE 0.0 15.8
05:10 17.8 86.4 1018.9 0.6 ENE 1.5 NNW 0.0 19.0
05:15 17.7 87.0 1019.0 1.7 SW 3.5 S 0.0 22.7
05:20 17.7 87.3 1019.0 1.3 SE 3.0 S 0.0 25.5
05:25 17.7 87.8 1019.0 2.5 S 5.5 S 0.0 28.9
05:30 17.7 88.0 1019.0 3.2 SSE 4.8 SE 0.0 32.4
05:35 17.9 87.8 1019.0 2.6 S 4.4 SW 0.0 37.9
05:40 18.1 87.1 1019.1 1.9 SSE 3.7 SSW 0.0 62.8
05:45 18.3 86.1 1019.0 1.9 E 3.6 E 0.0 118.3
05:50 18.5 85.8 1019.0 1.9 ENE 3.9 ENE 0.0 127.5
05:55 18.9 84.4 1019.0 1.5 ESE 4.9 ESE 0.0 144.6
06:00 19.4 81.6 1019.0 1.3 SE 3.3 SSE 0.0 158.2
06:05 20.1 79.0 1019.0 0.9 S 1.9 SW 0.0 171.7
06:10 21.0 74.1 1018.9 1.8 NNE 3.1 0.0 186.8
06:15 21.4 72.1 1018.9 2.0 NNE 4.1 NNE 0.0 202.4
06:20 21.6 71.0 1019.0 2.4 N 4.1 N 0.0 217.2
06:25 21.8 70.2 1019.0 2.9 NNW 7.0 N 0.0 233.1
06:30 21.6 69.9 1019.0 4.4 N 6.8 N 0.0 249.0
06:35 21.4 71.1 1019.0 5.5 N 7.6 NNW 0.0 264.3
06:40 21.3 72.2 1019.0 4.9 N 7.0 N 0.0 280.0
06:45 21.5 71.8 1019.0 5.0 NNE 8.6 NNE 0.0 296.8
06:50 21.5 72.0 1019.0 5.7 N 8.2 N 0.0 313.5
06:55 21.6 71.0 1019.0 4.8 N 9.0 NNE 0.0 329.8
07:00 21.8 70.3 1019.0 5.1 N 7.3 NNE 0.0 345.6
07:05 21.9 69.9 1019.0 6.1 N 8.5 N 0.0 362.9
07:10 22.0 70.0 1019.0 5.9 N 9.8 N 0.0 378.6
07:15 22.1 69.8 1019.1 6.8 N 9.9 NNE 0.0 395.6
07:20 22.3 69.0 1019.1 4.8 N 7.9 NNE 0.0 412.3
07:25 22.5 67.9 1019.0 4.4 NNW 7.0 NNE 0.0 428.4
07:30 22.9 66.8 1019.0 3.7 NNW 6.0 NNW 0.0 443.5
07:35 23.2 64.8 1019.0 2.6 NNW 6.5 N 0.0 458.2
07:40 23.6 62.3 1019.0 1.9 NW 4.7 NNW 0.0 472.0
07:45 24.3 58.9 1018.9 1.2 NNE 3.4 NE 0.0 485.3
07:50 24.7 57.9 1018.9 2.4 W 7.6 WNW 0.0 501.2
07:55 25.0 56.2 1018.9 3.8 NNW 8.4 NNW 0.0 519.8
08:00 24.8 56.6 1018.9 3.8 NNE 8.4 N 0.0 533.4
08:05 25.0 56.5 1018.9 2.5 NW 6.0 N 0.0 547.0
08:10 25.4 53.4 1018.8 1.5 N 4.8 N 0.0 558.7
08:15 26.2 49.9 1018.8 2.0 NE 4.9 WNW 0.0 571.0
08:20 26.5 48.9 1018.8 4.1 NNW 8.1 N 0.0 587.2
08:25 26.3 48.2 1018.7 3.8 N 7.6 NNW 0.0 601.4
08:30 26.3 47.4 1018.7 4.5 NNE 7.8 NNE 0.0 615.5
08:35 26.4 47.0 1018.6 5.0 N 8.8 N 0.0 630.6
08:40 26.8 45.5 1018.6 2.3 WNW 5.0 NW 0.0 643.1
08:45 27.5 42.9 1018.6 3.1 WNW 7.5 NW 0.0 655.7
08:50 28.4 40.0 1018.5 3.1 SW 7.2 SW 0.0 670.1
08:55 28.9 37.4 1018.5 4.1 WSW 9.4 W 0.0 680.8
09:00 29.1 37.2 1018.4 3.7 WSW 8.4 SSW 0.0 692.4
09:05 29.3 35.5 1018.4 3.2 SW 7.8 SSW 0.0 707.8
09:10 29.3 35.2 1018.3 4.2 SW 8.5 SSW 0.0 718.3
09:15 29.8 33.9 1018.3 5.6 SSW 11.9 SW 0.0 733.2
09:20 30.0 32.9 1018.3 6.4 SSW 14.5 SW 0.0 747.2
09:25 29.6 33.6 1018.2 5.0 W 8.2 SSW 0.0 757.7
09:30 29.7 34.3 1018.2 4.3 W 8.9 NW 0.0 766.9
09:35 30.1 32.5 1018.2 3.0 NW 8.2 NNW 0.0 774.7
09:40 30.5 32.4 1018.1 4.0 WSW 8.4 S 0.0 787.0
09:45 30.4 31.2 1018.1 4.3 WNW 10.8 WNW 0.0 801.0
09:50 30.1 30.9 1018.1 4.1 S 11.6 SE 0.0 812.0
09:55 30.5 30.1 1018.0 8.8 SSW 18.1 SSW 0.0 825.0
10:00 30.5 29.4 1018.0 7.3 S 15.5 S 0.0 837.0
10:05 30.6 28.6 1018.0 8.6 SSW 19.1 SSW 0.0 849.0
10:10 30.5 29.2 1017.9 6.8 S 11.6 SW 0.0 856.0
10:15 30.9 27.9 1017.9 4.9 SSE 8.7 SE 0.0 863.0
10:20 31.0 28.5 1017.9 4.5 WSW 12.8 WNW 0.0 869.0
10:25 30.8 28.3 1017.8 5.3 N 13.6 N 0.0 876.0
10:30 30.5 29.4 1017.7 5.4 SSW 15.7 SSW 0.0 881.0
10:35 30.9 27.9 1017.7 6.0 S 13.2 SSW 0.0 888.0
10:40 31.2 27.5 1017.6 9.3 SSW 17.7 SSE 0.0 899.0
10:45 31.4 27.4 1017.5 8.7 SSW 16.7 SSW 0.0 907.0
10:50 31.5 26.6 1017.5 10.4 SSE 16.0 SSE 0.0 915.0
10:55 31.4 27.0 1017.4 7.1 S 16.5 SSW 0.0 918.0
11:00 31.7 26.4 1017.4 13.6 SSW 22.4 SSW 0.0 926.0
11:05 31.5 26.9 1017.4 5.8 WSW 14.7 SSW 0.0 929.0
11:10 31.9 26.6 1017.4 3.6 SSW 12.3 W 0.0 927.0
11:15 32.3 25.9 1017.3 8.3 SW 16.4 WSW 0.0 933.0
11:20 32.1 26.5 1017.3 5.4 SSW 15.3 SW 0.0 936.0
11:25 32.3 25.9 1017.3 9.4 SSW 17.7 SW 0.0 944.0
11:30 32.3 26.1 1017.3 5.5 S 14.1 SSE 0.0 941.0
11:35 32.5 26.2 1017.2 7.2 S 20.5 SW 0.0 945.0
11:40 32.7 25.0 1017.2 11.0 SSW 21.0 SW 0.0 954.0
11:45 32.6 25.0 1017.1 6.8 SSE 12.7 SE 0.0 952.0
11:50 32.6 25.0 1017.1 6.4 SW 17.4 SSW 0.0 954.0
11:55 32.6 24.6 1017.0 4.2 WSW 13.4 SW 0.0 951.0
12:00 32.6 25.1 1016.9 6.9 NW 12.8 NW 0.0 951.0
12:05 32.6 24.9 1016.8 5.3 SSW 10.4 SSW 0.0 953.0
12:10 33.1 23.9 1016.8 8.7 SW 24.3 SSW 0.0 954.0
12:15 33.2 23.6 1016.7 9.3 SSW 21.2 SW 0.0 957.0
12:20 33.4 23.1 1016.6 8.0 SW 22.8 SSW 0.0 956.0
12:25 33.3 23.1 1016.6 7.9 SSW 17.2 SSW 0.0 953.0
12:30 33.6 22.5 1016.6 7.7 SSW 12.6 S 0.0 948.0
12:35 33.8 22.6 1016.5 7.8 SSW 15.0 SSW 0.0 943.0
12:40 33.9 22.3 1016.5 9.1 SSW 20.9 SSW 0.0 939.0
12:45 33.8 22.6 1016.4 8.7 SSW 25.7 SW 0.0 935.0
12:50 33.8 23.3 1016.3 10.9 SSW 22.6 SW 0.0 929.0
12:55 33.7 22.8 1016.3 9.5 SSW 19.4 SSW 0.0 929.0
13:00 33.8 22.7 1016.3 6.8 SW 17.7 SSW 0.0 919.0
13:05 33.3 23.0 1016.2 7.6 WSW 17.5 S 0.0 909.0
13:10 33.3 23.3 1016.2 7.5 S 17.7 SSW 0.0 908.0
13:15 33.3 25.3 1016.1 9.0 SW 25.1 SSW 0.0 897.0
13:20 33.9 25.4 1016.2 7.6 SSW 17.1 SSW 0.0 891.0
13:25 33.5 26.1 1016.1 7.0 SSW 15.3 S 0.0 881.0
13:30 33.8 25.7 1016.1 9.5 SSW 18.3 SSW 0.0 882.0
13:35 34.1 24.3 1016.0 6.8 SW 19.2 SSW 0.0 880.0
13:40 34.2 24.6 1016.0 6.0 SW 18.3 SSW 0.0 883.0
13:45 34.4 24.0 1016.0 6.1 SSW 15.8 SSW 0.0 904.0
13:50 34.1 28.2 1016.0 4.9 ESE 14.5 ENE 0.0 892.0
13:55 33.6 32.7 1016.0 9.7 SSE 19.0 SSE 0.0 907.0
14:00 33.2 33.5 1016.0 10.3 SSE 18.8 S 0.0 907.0
14:05 32.7 34.6 1015.9 7.6 SSE 16.9 S 0.0 900.0
14:10 33.0 33.6 1015.9 10.6 SSE 27.6 SSE 0.0 869.0
14:15 32.8 33.3 1015.9 9.9 SE 23.7 SSE 0.0 815.0
14:20 32.8 33.3 1015.9 8.3 SSE 16.2 SSE 0.0 692.4
14:25 32.8 32.6 1015.8 12.5 SSE 24.9 SE 0.0 752.4
14:30 32.2 32.6 1015.8 14.2 SSE 22.9 SSE 0.0 859.0
14:35 32.2 32.7 1015.8 8.2 SE 19.0 SSE 0.0 834.0
14:40 32.5 32.3 1015.7 6.6 SE 15.0 E 0.0 714.5
14:45 32.8 30.9 1015.7 7.4 SE 15.4 E 0.0 799.6
14:50 32.7 30.8 1015.7 12.0 SSE 21.9 SE 0.0 617.9
14:55 32.2 31.4 1015.7 10.8 SSE 22.8 SSE 0.0 609.1
15:00 32.2 31.6 1015.7 8.6 SE 18.1 SSE 0.0 533.8
15:05 31.8 31.7 1015.7 10.4 SE 19.9 S 0.0 315.3
15:10 31.0 33.3 1015.7 8.6 SE 16.9 SSE 0.0 286.6
15:15 30.9 33.8 1015.6 9.2 SE 19.3 E 0.0 233.8
15:20 30.7 34.3 1015.6 5.6 SE 18.8 E 0.0 262.3
15:25 30.5 35.1 1015.6 6.9 ENE 14.5 NE 0.0 203.5
15:30 30.0 36.2 1015.6 6.4 E 16.1 ENE 0.0 167.9
15:35 29.8 37.0 1015.5 5.4 E 10.8 NE 0.0 269.8
15:40 30.3 36.5 1015.5 7.5 ESE 16.4 SSE 0.0 608.8
15:45 31.2 34.8 1015.4 7.0 ESE 14.5 S 0.0 565.0
15:50 31.5 34.7 1015.4 5.3 ENE 11.1 NE 0.0 300.9
15:55 31.3 34.7 1015.4 6.8 SSE 14.6 SE 0.0 457.2
16:00 31.5 33.8 1015.4 10.6 SSE 15.9 SSE 0.0 524.0
16:05 31.7 33.9 1015.4 5.8 ESE 14.1 ENE 0.0 508.3
16:10 31.4 34.7 1015.4 4.1 E 11.2 NE 0.0 491.5
16:15 31.8 33.7 1015.3 7.0 SE 14.4 SE 0.0 479.2
16:20 31.7 34.8 1015.3 6.4 ESE 12.9 NE 0.0 474.5
16:25 32.0 34.0 1015.3 5.5 SE 11.3 ESE 0.0 450.5
16:30 32.0 34.2 1015.2 7.1 SSE 13.4 S 0.0 450.7
16:35 32.2 34.3 1015.2 4.9 ESE 16.2 SE 0.0 448.5
16:40 31.8 36.1 1015.2 7.2 NE 17.6 E 0.0 439.6
16:45 31.4 37.4 1015.2 6.4 ENE 15.7 ENE 0.0 430.4
16:50 31.2 38.2 1015.2 7.1 NE 21.1 NE 0.0 392.1
16:55 30.9 39.3 1015.2 7.5 ENE 17.7 ENE 0.0 375.7
17:00 30.8 39.9 1015.2 6.8 ENE 19.0 ESE 0.0 373.0
17:05 30.8 40.0 1015.2 5.7 E 14.7 ENE 0.0 339.8
17:10 30.7 40.7 1015.2 5.7 ESE 15.7 ENE 0.0 307.9
17:15 31.0 40.6 1015.3 3.7 SE 10.5 NE 0.0 283.4
17:20 31.2 40.6 1015.3 3.9 ESE 8.7 E 0.0 257.3
17:25 31.2 40.5 1015.3 5.4 ESE 11.4 E 0.0 250.6
17:30 30.4 43.1 1015.3 5.9 E 15.3 ENE 0.0 233.0
17:35 30.1 44.3 1015.3 4.3 ESE 10.3 NE 0.0 218.2
17:40 30.1 44.5 1015.3 4.0 E 13.7 SE 0.0 204.1
17:45 29.9 45.3 1015.3 5.4 E 12.1 E 0.0 190.5
17:50 29.6 45.7 1015.3 4.8 ENE 11.2 ENE 0.0 175.0
17:55 29.5 45.7 1015.3 5.1 ENE 15.0 NE 0.0 160.9
18:00 29.3 46.9 1015.4 5.9 ENE 11.7 ENE 0.0 149.2
18:05 29.0 47.2 1015.4 5.0 ENE 11.5 ENE 0.0 136.1
18:10 28.9 46.9 1015.4 2.6 NNE 5.8 NE 0.0 122.9
18:15 29.1 45.9 1015.5 2.7 ENE 6.0 NNE 0.0 108.9
18:20 28.9 46.1 1015.5 4.5 ESE 11.3 E 0.0 97.8
18:25 28.6 46.6 1015.5 4.3 ENE 10.4 NNE 0.0 84.6
18:30 28.4 47.1 1015.6 3.8 E 9.7 ESE 0.0 71.8
18:35 28.2 47.2 1015.6 3.9 ENE 8.5 ENE 0.0 61.1
18:40 28.0 48.1 1015.6 5.5 NE 10.8 NNE 0.0 51.5
18:45 27.8 48.8 1015.7 3.1 ENE 6.8 ENE 0.0 43.0
18:50 27.6 49.3 1015.7 3.5 NE 7.7 NE 0.0 34.2
18:55 27.4 49.9 1015.7 1.7 E 6.2 ENE 0.0 24.7
19:00 27.2 51.6 1015.7 4.7 SSW 11.4 SSE 0.0 16.3
19:05 27.1 52.6 1015.8 5.5 SSE 10.3 SE 0.0 12.1
19:10 27.0 53.0 1015.8 4.4 SSE 9.0 SE 0.0 8.1
19:15 26.8 53.3 1015.8 4.9 SSE 8.4 SSE 0.0 4.6
19:20 26.6 54.1 1015.8 4.2 S 9.0 SSE 0.0 2.5
19:25 26.4 54.5 1015.8 3.4 S 6.6 SSE 0.0 1.4
19:30 26.1 55.0 1015.9 2.9 SSW 5.7 SSE 0.0 0.7
19:35 25.9 55.6 1015.9 3.6 SSW 6.2 SSE 0.0 0.2
19:40 25.7 56.1 1015.9 2.8 SW 5.5 SSW 0.0 0.0
19:45 25.5 56.8 1016.0 2.8 SW 6.0 SW 0.0 0.0
19:50 25.3 57.8 1016.0 1.7 WSW 3.0 SW 0.0 0.0
19:55 25.0 59.4 1016.0 1.2 WNW 3.6 W 0.0 0.0
20:00 24.7 60.1 1016.0 1.1 NE 1.9 ENE 0.0 0.2
20:05 24.5 61.1 1016.0 0.6 ENE 1.7 ESE 0.0 0.2
20:10 24.4 61.3 1016.1 1.4 SW 3.1 SW 0.0 0.6
20:15 24.3 61.3 1016.1 1.3 ESE 2.0 ESE 0.0 0.4
20:20 24.3 61.3 1016.1 2.8 SSE 5.2 S 0.0 0.6
20:25 24.3 61.4 1016.1 2.6 S 4.1 SSE 0.0 0.5
20:30 24.2 61.6 1016.1 2.1 SSE 3.1 SE 0.0 0.1
20:35 24.1 61.7 1016.1 1.3 S 3.0 S 0.0 0.1
20:40 24.1 62.0 1016.1 1.5 S 2.9 S 0.0 0.2
20:45 23.9 62.9 1016.1 1.0 SSE 2.7 SSE 0.0 0.2
20:50 23.7 63.2 1016.1 1.0 ENE 2.1 NE 0.0 0.4
20:55 23.5 63.7 1016.1 1.0 NNW 2.3 WSW 0.0 0.4
21:00 23.4 64.5 1016.1 1.5 W 3.1 NW 0.0 0.7
21:05 23.3 65.4 1016.1 2.7 S 3.9 S 0.0 0.4
21:10 23.1 66.1 1016.1 2.9 SSE 4.0 SSE 0.0 0.5
21:15 23.0 66.6 1016.2 2.4 S 3.9 SE 0.0 0.2
21:20 23.0 67.1 1016.2 1.3 SSW 3.0 SE 0.0 0.2
21:25 22.8 67.8 1016.1 3.0 ESE 4.4 ENE 0.0 0.1
21:30 22.6 68.7 1016.1 2.7 ESE 4.0 NE 0.0 0.3
21:35 22.6 68.4 1016.1 1.1 S 2.9 SSE 0.0 0.1
21:40 22.6 68.2 1016.1 2.0 ESE 2.7 ESE 0.0 0.2
21:45 22.6 68.3 1016.1 1.5 E 2.9 ENE 0.0 0.4
21:50 22.5 68.6 1016.1 1.2 SSE 2.8 E 0.0 0.2
21:55 22.3 69.2 1016.1 1.2 SSE 2.3 SE 0.0 0.2
22:00 22.2 69.7 1016.1 0.8 SW 1.8 WSW 0.0 0.2
22:05 22.1 70.4 1016.1 0.8 ESE 1.3 ENE 0.0 0.3
22:10 21.9 71.4 1016.2 2.5 ENE 4.5 ENE 0.0 0.6
22:15 21.9 71.3 1016.1 3.1 ENE 5.4 NE 0.0 1.0
Máxima 34.5 88.0 1019.8 14.2 SSE 27.6 SSE 0.0 957.0
Mínima 17.6 22.3 1015.2
Total 0.0